Time;durP1;ratioP1;P1;durP2;ratioP2;P2;SDS_P1;SDS_P2;PMS_P1;PMS_P2;Temp;Humidity;BMP_temperature;BMP_pressure;BME280_temperature;BME280_humidity;BME280_pressure;Samples;Min_cycle;Max_cycle;Signal;HPM_P1;HPM_P2
2022/12/26 00:01:11;;;;;;;21.90;10.50;;;;;;;6.19;100.00;99343.44;104515;1303;22766;-33
2022/12/26 00:03:37;;;;;;;11.60;5.10;;;;;;;6.21;100.00;99338.77;104741;1295;23127;-34
2022/12/26 00:06:03;;;;;;;28.00;9.90;;;;;;;6.20;100.00;99335.33;104767;1303;22796;-29
2022/12/26 00:08:28;;;;;;;21.90;12.00;;;;;;;6.23;100.00;99338.86;104572;1303;22661;-30
2022/12/26 00:10:54;;;;;;;17.60;8.50;;;;;;;6.22;100.00;99339.32;104686;1295;22772;-29
2022/12/26 00:13:20;;;;;;;19.00;7.20;;;;;;;6.22;100.00;99343.12;104880;1302;22782;-31
2022/12/26 00:15:46;;;;;;;18.30;8.70;;;;;;;6.23;100.00;99340.46;104708;1295;22654;-30
2022/12/26 00:18:12;;;;;;;19.50;11.20;;;;;;;6.20;100.00;99338.48;104802;1303;22760;-33
2022/12/26 00:20:38;;;;;;;21.90;8.90;;;;;;;6.19;100.00;99331.88;104926;1295;23152;-31
2022/12/26 00:23:04;;;;;;;20.10;8.20;;;;;;;6.19;100.00;99330.14;104733;1295;23039;-36
2022/12/26 00:25:30;;;;;;;21.00;10.80;;;;;;;6.21;100.00;99332.33;104783;1292;22652;-32
2022/12/26 00:27:55;;;;;;;17.00;9.10;;;;;;;6.26;100.00;99332.11;104863;1295;23048;-31
2022/12/26 00:30:21;;;;;;;21.60;10.60;;;;;;;6.28;100.00;99321.45;104878;1292;23415;-35
2022/12/26 00:32:47;;;;;;;23.30;10.50;;;;;;;6.25;100.00;99313.59;104739;1303;24623;-31
2022/12/26 00:35:13;;;;;;;21.30;9.00;;;;;;;6.28;100.00;99312.34;104802;1295;22656;-31
2022/12/26 00:37:39;;;;;;;22.50;10.70;;;;;;;6.30;100.00;99311.24;104745;1303;24451;-34
2022/12/26 00:40:06;;;;;;;22.70;10.00;;;;;;;6.32;100.00;99311.54;104790;1295;22791;-32
2022/12/26 00:42:32;;;;;;;20.10;9.80;;;;;;;6.36;100.00;99323.19;104789;1303;22898;-39
2022/12/26 00:44:59;;;;;;;22.10;12.70;;;;;;;6.39;100.00;99329.31;104816;1300;22549;-35
2022/12/26 00:47:24;;;;;;;20.40;9.40;;;;;;;6.42;100.00;99317.94;104875;1290;22666;-34
2022/12/26 00:49:50;;;;;;;30.40;12.10;;;;;;;6.45;100.00;99307.08;104680;1292;22659;-32
2022/12/26 00:52:16;;;;;;;20.20;9.70;;;;;;;6.46;100.00;99304.16;104710;1292;24541;-31
2022/12/26 00:54:41;;;;;;;20.50;10.70;;;;;;;6.47;100.00;99298.64;104881;1293;23165;-31
2022/12/26 00:57:07;;;;;;;24.30;10.20;;;;;;;6.48;100.00;99291.48;104726;1289;23028;-34
2022/12/26 00:59:33;;;;;;;18.60;9.10;;;;;;;6.48;100.00;99296.06;104970;1292;22814;-32
2022/12/26 01:01:59;;;;;;;14.60;7.70;;;;;;;6.49;100.00;99286.83;104743;1295;22930;-31
2022/12/26 01:04:24;;;;;;;22.40;9.20;;;;;;;6.51;100.00;99281.29;104859;1295;23042;-30
2022/12/26 01:06:51;;;;;;;13.60;8.60;;;;;;;6.53;100.00;99280.08;104771;1289;23172;-29
2022/12/26 01:09:16;;;;;;;14.70;6.70;;;;;;;6.55;100.00;99286.20;104744;1295;24308;-30
2022/12/26 01:11:42;;;;;;;24.00;8.30;;;;;;;6.59;100.00;99288.32;104809;1301;22789;-31
2022/12/26 01:14:13;;;;;;;23.10;7.90;;;;;;;6.64;100.00;99289.60;104893;1295;22560;-34
2022/12/26 01:16:39;;;;;;;23.50;9.20;;;;;;;6.61;100.00;99295.85;104937;1294;22795;-34
2022/12/26 01:19:05;;;;;;;18.60;8.00;;;;;;;6.64;100.00;99293.16;104734;1295;22605;-30
2022/12/26 01:21:31;;;;;;;20.00;9.20;;;;;;;6.65;100.00;99287.39;104751;1289;22568;-31
2022/12/26 01:23:57;;;;;;;17.60;8.80;;;;;;;6.66;100.00;99285.02;104752;1295;23192;-33
2022/12/26 01:26:22;;;;;;;17.30;8.50;;;;;;;6.65;100.00;99285.60;104706;1295;24497;-34
2022/12/26 01:28:49;;;;;;;12.50;6.30;;;;;;;6.67;100.00;99279.36;104829;1294;22986;-35
2022/12/26 01:31:14;;;;;;;23.00;9.70;;;;;;;6.69;100.00;99272.48;104758;1292;22651;-35
2022/12/26 01:33:40;;;;;;;25.30;10.40;;;;;;;6.66;100.00;99264.48;104820;1303;22944;-31
2022/12/26 01:36:06;;;;;;;12.80;7.20;;;;;;;6.66;100.00;99256.00;104676;1303;22668;-35
2022/12/26 01:38:32;;;;;;;23.10;9.30;;;;;;;6.66;100.00;99260.57;104717;1292;22552;-35
2022/12/26 01:43:48;;;;;;;19.90;10.10;;;;;;;6.73;100.00;99271.31;104774;1303;22579;-40
2022/12/26 01:46:16;;;;;;;10.40;7.80;;;;;;;6.73;100.00;99271.15;104832;1303;23064;-35
2022/12/26 01:48:42;;;;;;;24.10;10.70;;;;;;;6.72;100.00;99268.82;104913;1295;23128;-35
2022/12/26 01:51:07;;;;;;;14.00;7.30;;;;;;;6.83;100.00;99263.28;104885;1295;23161;-31
2022/12/26 01:53:35;;;;;;;22.00;9.40;;;;;;;6.86;100.00;99258.89;104690;1292;22659;-35
2022/12/26 01:56:05;;;;;;;13.50;8.10;;;;;;;6.85;100.00;99244.75;104836;1295;22808;-31
2022/12/26 01:58:35;;;;;;;15.00;8.40;;;;;;;6.82;100.00;99231.23;104769;1295;22798;-32
2022/12/26 02:01:01;;;;;;;9.90;5.90;;;;;;;6.79;100.00;99221.06;104701;1292;22654;-32
2022/12/26 02:05:56;;;;;;;17.40;9.10;;;;;;;6.85;100.00;99211.48;104722;1292;23804;-35
2022/12/26 02:08:25;;;;;;;25.90;10.00;;;;;;;6.89;100.00;99203.27;104830;1295;22657;-31
2022/12/26 02:11:23;;;;;;;18.00;7.50;;;;;;;6.94;100.00;99192.75;104858;1295;22785;-31
2022/12/26 02:13:48;;;;;;;14.20;7.90;;;;;;;6.99;100.00;99192.02;104772;1295;22677;-33
2022/12/26 02:16:15;;;;;;;17.60;7.80;;;;;;;6.98;100.00;99200.07;104824;1301;22805;-34
2022/12/26 02:18:41;;;;;;;16.80;8.50;;;;;;;7.04;100.00;99204.11;104729;1293;22665;-34
2022/12/26 02:21:32;;;;;;;17.90;8.00;;;;;;;7.03;100.00;99201.75;104831;1288;22826;-30
2022/12/26 02:24:23;;;;;;;20.40;7.80;;;;;;;7.12;100.00;99206.23;104520;1303;22792;-34
2022/12/26 02:27:09;;;;;;;19.50;9.40;;;;;;;7.13;100.00;99203.28;104742;1293;22576;-30
2022/12/26 02:29:53;;;;;;;13.20;7.60;;;;;;;7.11;100.00;99190.96;104838;1295;22649;-34
2022/12/26 02:32:43;;;;;;;15.00;8.20;;;;;;;7.21;100.00;99181.30;104726;1303;24304;-30
2022/12/26 02:35:27;;;;;;;18.70;8.40;;;;;;;7.20;100.00;99175.13;104661;1295;22660;-30
2022/12/26 02:38:04;;;;;;;;;;;;;;;7.29;100.00;99180.48;104745;1295;22612;-34
2022/12/26 02:40:45;;;;;;;17.00;7.90;;;;;;;7.26;100.00;99172.81;104849;1289;23031;-34
2022/12/26 02:43:17;;;;;;;20.20;6.70;;;;;;;7.31;100.00;99175.48;104514;1292;24497;-34
2022/12/26 02:48:41;;;;;;;14.70;7.30;;;;;;;7.29;100.00;99184.14;104722;1303;23480;-30
2022/12/26 03:15:10;;;;;;;16.80;8.60;;;;;;;7.19;100.00;99138.05;104761;1292;23050;-34
2022/12/26 03:17:46;;;;;;;15.50;7.30;;;;;;;7.20;100.00;99140.98;104848;1295;24346;-34
2022/12/26 03:20:20;;;;;;;9.90;6.00;;;;;;;7.17;100.00;99143.27;104878;1295;23175;-34
2022/12/26 03:22:54;;;;;;;13.40;8.10;;;;;;;7.22;100.00;99125.73;104928;1292;23281;-31
2022/12/26 03:28:24;;;;;;;15.00;8.80;;;;;;;7.11;100.00;99108.67;104567;1303;22663;-35
2022/12/26 03:30:50;;;;;;;22.50;8.70;;;;;;;7.13;100.00;99125.05;104813;1295;22574;-31
2022/12/26 03:35:58;;;;;;;9.90;7.80;;;;;;;7.12;100.00;99142.79;104716;1292;22927;-31
2022/12/26 03:38:32;;;;;;;14.10;7.30;;;;;;;7.11;100.00;99148.65;104749;1295;22666;-31
2022/12/26 04:20:17;;;;;;;12.40;7.10;;;;;;;7.04;100.00;99138.27;104549;1295;22570;-32
2022/12/26 05:14:48;;;;;;;11.60;7.30;;;;;;;7.00;100.00;99149.36;104319;1302;558219;-33
2022/12/26 05:29:41;;;;;;;14.50;7.30;;;;;;;7.06;100.00;99124.09;104659;1292;22586;-32
2022/12/26 05:32:07;;;;;;;18.60;9.70;;;;;;;7.02;100.00;99127.05;104541;1289;24311;-35
2022/12/26 05:34:32;;;;;;;14.80;8.00;;;;;;;7.06;100.00;99121.73;104513;1295;22992;-36
2022/12/26 05:36:58;;;;;;;14.40;9.10;;;;;;;7.02;100.00;99118.30;104468;1301;22965;-35
2022/12/26 05:39:24;;;;;;;19.50;7.80;;;;;;;7.02;100.00;99109.39;104465;1301;22797;-35
2022/12/26 05:41:50;;;;;;;12.70;7.00;;;;;;;7.06;100.00;99114.27;104613;1295;24351;-31
2022/12/26 05:44:15;;;;;;;15.40;8.60;;;;;;;6.98;100.00;99118.70;104615;1295;25788;-35
2022/12/26 05:46:42;;;;;;;14.60;9.10;;;;;;;7.01;100.00;99130.73;104423;1304;22650;-34
2022/12/26 05:49:08;;;;;;;14.30;8.10;;;;;;;6.96;100.00;99127.86;104520;1295;22576;-35
2022/12/26 05:51:34;;;;;;;13.40;8.50;;;;;;;6.95;100.00;99133.34;104531;1304;22667;-37
2022/12/26 05:54:00;;;;;;;17.30;7.60;;;;;;;6.96;100.00;99138.42;104695;1289;22566;-30
2022/12/26 05:56:26;;;;;;;13.70;7.80;;;;;;;6.96;100.00;99142.73;104500;1301;22820;-34
2022/12/26 05:58:56;;;;;;;17.50;5.30;;;;;;;6.99;100.00;99160.29;104586;1292;23260;-33
2022/12/26 06:01:22;;;;;;;13.30;7.80;;;;;;;7.14;100.00;99161.42;104478;1301;22800;-30
2022/12/26 06:03:50;;;;;;;15.50;9.00;;;;;;;7.09;100.00;99138.05;104559;1305;23040;-34
2022/12/26 06:06:16;;;;;;;19.20;10.90;;;;;;;7.11;100.00;99120.66;104566;1298;22675;-35
2022/12/26 06:08:42;;;;;;;16.60;8.50;;;;;;;7.19;100.00;99112.53;104473;1305;22663;-34
2022/12/26 06:11:10;;;;;;;18.20;9.10;;;;;;;7.14;100.00;99123.02;104602;1293;22675;-31
2022/12/26 06:13:35;;;;;;;11.90;9.00;;;;;;;7.06;100.00;99130.48;104652;1291;23039;-31
2022/12/26 06:16:06;;;;;;;14.50;9.90;;;;;;;7.01;100.00;99127.50;104436;1302;23008;-34
2022/12/26 06:18:32;;;;;;;18.30;10.10;;;;;;;7.01;100.00;99115.02;104499;1304;22844;-35
2022/12/26 06:20:57;;;;;;;20.40;10.70;;;;;;;7.01;100.00;99112.74;104467;1305;23157;-34
2022/12/26 06:23:23;;;;;;;12.40;6.70;;;;;;;6.97;100.00;99124.35;104557;1296;23032;-35
2022/12/26 06:25:53;;;;;;;13.40;8.80;;;;;;;6.95;100.00;99136.39;104484;1305;22751;-36
2022/12/26 06:28:19;;;;;;;18.90;9.50;;;;;;;6.98;100.00;99129.74;104544;1291;24427;-32
2022/12/26 06:30:45;;;;;;;14.20;8.90;;;;;;;6.96;100.00;99126.26;104521;1295;23041;-33
2022/12/26 06:33:11;;;;;;;17.50;9.00;;;;;;;6.95;100.00;99129.85;104457;1298;22636;-30
2022/12/26 06:35:37;;;;;;;12.50;8.00;;;;;;;6.96;100.00;99130.38;104540;1302;22805;-34
2022/12/26 06:38:04;;;;;;;12.90;8.50;;;;;;;6.98;100.00;99135.39;104436;1295;22740;-35
2022/12/26 06:40:29;;;;;;;15.80;9.60;;;;;;;6.96;100.00;99132.70;104512;1302;23201;-34
2022/12/26 06:42:55;;;;;;;16.20;9.40;;;;;;;6.99;100.00;99136.49;104522;1294;22800;-34
2022/12/26 06:45:21;;;;;;;14.70;10.20;;;;;;;6.99;100.00;99138.55;104479;1295;22662;-31
2022/12/26 06:47:46;;;;;;;18.80;9.90;;;;;;;7.01;100.00;99144.58;104475;1303;23034;-35
2022/12/26 06:50:12;;;;;;;17.30;10.10;;;;;;;6.98;100.00;99139.97;104446;1301;22703;-36
2022/12/26 06:52:38;;;;;;;19.40;9.20;;;;;;;7.01;100.00;99135.51;104505;1302;22970;-30
2022/12/26 06:55:05;;;;;;;16.40;9.80;;;;;;;6.97;100.00;99143.11;104447;1305;23043;-34
2022/12/26 06:57:30;;;;;;;16.50;9.40;;;;;;;6.96;100.00;99146.59;104472;1294;22830;-30
2022/12/26 06:59:56;;;;;;;16.60;10.00;;;;;;;6.94;100.00;99139.29;104452;1295;22804;-32
2022/12/26 07:02:22;;;;;;;19.90;10.20;;;;;;;7.02;100.00;99132.92;104490;1302;23156;-34
2022/12/26 07:04:47;;;;;;;20.90;10.60;;;;;;;7.06;100.00;99134.30;104473;1295;22771;-30
2022/12/26 07:07:13;;;;;;;18.40;10.30;;;;;;;7.06;100.00;99144.41;104480;1305;22659;-35
2022/12/26 07:09:39;;;;;;;18.70;9.90;;;;;;;7.00;100.00;99150.06;104446;1305;22654;-32
2022/12/26 07:12:05;;;;;;;13.20;10.10;;;;;;;7.02;100.00;99151.45;104422;1292;22659;-30
2022/12/26 07:14:31;;;;;;;19.70;9.10;;;;;;;7.04;100.00;99157.08;104559;1294;22698;-30
2022/12/26 07:16:57;;;;;;;16.00;8.80;;;;;;;7.05;100.00;99169.45;104471;1295;22817;-39
2022/12/26 07:19:22;;;;;;;16.90;8.70;;;;;;;7.07;100.00;99172.04;104506;1301;22625;-34
2022/12/26 07:21:48;;;;;;;19.90;10.20;;;;;;;7.08;100.00;99166.66;104551;1305;24298;-31
2022/12/26 07:24:15;;;;;;;17.60;10.60;;;;;;;7.13;100.00;99155.09;104502;1295;22744;-34
2022/12/26 07:26:42;;;;;;;12.00;9.60;;;;;;;7.15;100.00;99160.80;104469;1294;25041;-33
2022/12/26 07:29:08;;;;;;;15.60;9.70;;;;;;;7.17;100.00;99171.79;104481;1301;22872;-30
2022/12/26 07:31:33;;;;;;;14.10;9.30;;;;;;;7.21;100.00;99172.39;104434;1295;22517;-33
2022/12/26 07:33:59;;;;;;;19.40;10.20;;;;;;;7.18;100.00;99171.44;104528;1301;24298;-32
2022/12/26 07:36:25;;;;;;;18.50;10.80;;;;;;;7.19;100.00;99174.17;104447;1302;24312;-35
2022/12/26 07:38:51;;;;;;;17.80;10.50;;;;;;;7.19;100.00;99184.35;104557;1301;24458;-34
2022/12/26 07:43:47;;;;;;;21.70;10.70;;;;;;;7.27;100.00;99197.34;104511;1291;25276;-30
2022/12/26 07:46:13;;;;;;;16.60;9.80;;;;;;;7.29;100.00;99195.32;104497;1302;22808;-33
2022/12/26 07:48:38;;;;;;;14.00;7.90;;;;;;;7.23;100.00;99184.92;104443;1294;23176;-31
2022/12/26 07:51:04;;;;;;;14.50;9.90;;;;;;;7.26;100.00;99167.29;104435;1294;23156;-33
2022/12/26 07:53:30;;;;;;;18.30;9.30;;;;;;;7.25;100.00;99165.77;104510;1294;23040;-34
2022/12/26 07:55:59;;;;;;;22.30;10.60;;;;;;;7.29;100.00;99168.17;104592;1288;23156;-34
2022/12/26 07:58:25;;;;;;;21.10;11.90;;;;;;;7.27;100.00;99177.88;104474;1295;24424;-31
2022/12/26 08:00:50;;;;;;;17.40;10.40;;;;;;;7.22;100.00;99182.77;104484;1305;23032;-33
2022/12/26 08:03:16;;;;;;;18.00;10.40;;;;;;;7.21;100.00;99179.87;104431;1304;22810;-30
2022/12/26 08:05:46;;;;;;;17.90;10.80;;;;;;;7.20;100.00;99172.45;104464;1291;23169;-30
2022/12/26 08:08:12;;;;;;;18.60;10.50;;;;;;;7.24;100.00;99176.27;104542;1305;23160;-32
2022/12/26 08:10:38;;;;;;;10.30;6.60;;;;;;;7.29;100.00;99193.86;104443;1305;24276;-32
2022/12/26 08:13:03;;;;;;;20.10;9.00;;;;;;;7.28;100.00;99186.98;104505;1302;22566;-35
2022/12/26 08:15:29;;;;;;;18.50;12.00;;;;;;;7.31;100.00;99180.41;104540;1305;22553;-32
2022/12/26 08:17:55;;;;;;;19.90;11.10;;;;;;;7.36;100.00;99186.11;104450;1297;22678;-35
2022/12/26 08:20:21;;;;;;;11.60;7.80;;;;;;;7.38;100.00;99189.46;104522;1301;23041;-36
2022/12/26 08:22:47;;;;;;;25.40;11.80;;;;;;;7.40;100.00;99187.73;104106;1297;22660;-35
2022/12/26 08:25:13;;;;;;;18.90;8.10;;;;;;;7.48;100.00;99161.89;104542;1295;22804;-36
2022/12/26 08:27:39;;;;;;;15.00;10.00;;;;;;;7.47;100.00;99153.61;104520;1305;22651;-32
2022/12/26 08:30:05;;;;;;;27.30;10.60;;;;;;;7.46;100.00;99161.02;104546;1294;24321;-32
2022/12/26 08:32:31;;;;;;;19.60;9.70;;;;;;;7.47;100.00;99165.17;104472;1295;22666;-35
2022/12/26 08:34:56;;;;;;;18.60;8.40;;;;;;;7.54;100.00;99176.67;104445;1295;22674;-32
2022/12/26 08:37:23;;;;;;;17.40;10.90;;;;;;;7.57;100.00;99167.16;104479;1302;22663;-32
2022/12/26 08:39:51;;;;;;;13.00;8.60;;;;;;;7.61;100.00;99168.02;104443;1305;22676;-32
2022/12/26 08:42:18;;;;;;;13.80;6.60;;;;;;;7.63;100.00;99189.58;104475;1291;22565;-32
2022/12/26 08:44:44;;;;;;;16.00;9.60;;;;;;;7.71;100.00;99192.94;104452;1295;22972;-35
2022/12/26 08:47:09;;;;;;;23.70;10.40;;;;;;;7.64;100.00;99189.47;104486;1293;24229;-31
2022/12/26 08:49:35;;;;;;;15.40;9.10;;;;;;;7.67;100.00;99183.09;104531;1305;22560;-31
2022/12/26 08:52:01;;;;;;;13.00;7.30;;;;;;;7.74;100.00;99189.54;104522;1294;22630;-35
2022/12/26 08:54:27;;;;;;;12.10;7.10;;;;;;;7.99;100.00;99186.16;104500;1294;22562;-32
2022/12/26 08:56:53;;;;;;;13.80;8.20;;;;;;;7.82;100.00;99181.34;104454;1301;23169;-32
2022/12/26 08:59:19;;;;;;;9.60;5.30;;;;;;;7.94;100.00;99187.71;104532;1305;24346;-32
2022/12/26 09:01:45;;;;;;;23.70;10.80;;;;;;;8.00;100.00;99181.13;104475;1295;22556;-35
2022/12/26 09:04:10;;;;;;;16.30;8.70;;;;;;;7.92;100.00;99180.83;104524;1294;23172;-35
2022/12/26 09:06:37;;;;;;;15.30;9.50;;;;;;;7.99;100.00;99183.42;104483;1294;22764;-36
2022/12/26 09:09:03;;;;;;;9.70;5.70;;;;;;;8.26;100.00;99183.98;104422;1304;23028;-32
2022/12/26 09:11:29;;;;;;;13.50;8.70;;;;;;;8.24;100.00;99178.72;104491;1291;22672;-33
2022/12/26 09:13:56;;;;;;;13.50;8.30;;;;;;;8.20;100.00;99168.84;104403;1299;23157;-35
2022/12/26 09:16:23;;;;;;;12.20;6.70;;;;;;;8.43;100.00;99172.85;104499;1305;24317;-33
2022/12/26 09:18:53;;;;;;;12.80;8.60;;;;;;;8.52;100.00;99166.05;104472;1294;23299;-32
2022/12/26 09:21:18;;;;;;;13.90;8.10;;;;;;;8.47;100.00;99167.89;104518;1295;22672;-32
2022/12/26 09:23:44;;;;;;;11.70;7.60;;;;;;;8.45;100.00;99170.65;104496;1295;22639;-32
2022/12/26 09:26:15;;;;;;;15.90;8.70;;;;;;;8.44;100.00;99156.86;104514;1294;22916;-36
2022/12/26 09:28:41;;;;;;;17.30;8.00;;;;;;;8.65;100.00;99172.27;104474;1295;22562;-32
2022/12/26 09:31:12;;;;;;;12.20;8.40;;;;;;;8.60;100.00;99155.25;104533;1292;22584;-37
2022/12/26 09:33:37;;;;;;;14.50;6.70;;;;;;;8.64;100.00;99154.34;104454;1294;22557;-36
2022/12/26 09:36:09;;;;;;;18.70;7.90;;;;;;;8.81;100.00;99150.29;104539;1295;22792;-34
2022/12/26 09:38:35;;;;;;;22.10;9.70;;;;;;;8.84;100.00;99153.11;104519;1294;24350;-33
2022/12/26 09:41:32;;;;;;;12.50;5.30;;;;;;;8.86;100.00;99158.77;104486;1294;23033;-33
2022/12/26 09:44:10;;;;;;;5.10;4.00;;;;;;;8.96;100.00;99165.61;104488;1294;24468;-35
2022/12/26 09:46:55;;;;;;;13.90;7.70;;;;;;;9.16;100.00;99172.07;104483;1305;24461;-35
2022/12/26 09:49:23;;;;;;;12.20;7.40;;;;;;;9.07;100.00;99183.73;104503;1295;22668;-32
2022/12/26 09:52:01;;;;;;;14.60;7.70;;;;;;;8.96;100.00;99181.55;104492;1292;22579;-35
2022/12/26 09:54:31;;;;;;;15.70;7.30;;;;;;;8.89;100.00;99181.41;104358;1305;22688;-31
2022/12/26 09:56:58;;;;;;;9.30;6.50;;;;;;;8.88;100.00;99176.27;104438;1299;22565;-35
2022/12/26 09:59:25;;;;;;;16.20;8.90;;;;;;;8.86;100.00;99174.35;104476;1295;22577;-35
2022/12/26 10:01:51;;;;;;;22.10;8.80;;;;;;;8.85;100.00;99176.03;104454;1294;22679;-32
2022/12/26 10:04:23;;;;;;;13.10;8.90;;;;;;;8.82;100.00;99178.02;104414;1305;22675;-36
2022/12/26 10:06:56;;;;;;;15.90;10.50;;;;;;;9.02;100.00;99185.79;104478;1294;22806;-30
2022/12/26 10:09:41;;;;;;;20.90;8.40;;;;;;;9.15;100.00;99181.21;104506;1291;22559;-33
2022/12/26 10:12:27;;;;;;;12.10;7.70;;;;;;;9.19;100.00;99184.80;104404;1294;23035;-32
2022/12/26 10:15:10;;;;;;;17.10;8.00;;;;;;;9.43;100.00;99183.46;104457;1294;23327;-32
2022/12/26 10:17:39;;;;;;;15.30;7.50;;;;;;;9.51;100.00;99179.02;104460;1289;22805;-36
2022/12/26 10:20:22;;;;;;;15.50;10.10;;;;;;;9.38;100.00;99175.38;104485;1294;24308;-34
2022/12/26 10:23:13;;;;;;;6.30;3.90;;;;;;;9.32;100.00;99174.63;104426;1285;23043;-30
2022/12/26 10:25:50;;;;;;;12.50;7.20;;;;;;;9.59;100.00;99177.98;104484;1295;23046;-31
2022/12/26 10:28:30;;;;;;;10.70;7.00;;;;;;;9.34;100.00;99178.48;104463;1293;22675;-31
2022/12/26 10:30:57;;;;;;;14.30;8.00;;;;;;;9.52;100.00;99179.60;104441;1294;22866;-31
2022/12/26 10:33:36;;;;;;;17.90;8.50;;;;;;;9.68;100.00;99175.64;104428;1298;22670;-32
2022/12/26 10:36:02;;;;;;;11.50;7.70;;;;;;;10.02;100.00;99172.98;104421;1294;22935;-32
2022/12/26 10:38:34;;;;;;;10.40;7.80;;;;;;;10.28;100.00;99166.54;104420;1305;23037;-35
2022/12/26 10:41:05;;;;;;;13.00;6.90;;;;;;;10.26;100.00;99157.71;104475;1305;24317;-32
2022/12/26 10:43:32;;;;;;;5.90;4.10;;;;;;;10.18;100.00;99164.98;104444;1305;22730;-35
2022/12/26 10:46:22;;;;;;;13.60;8.50;;;;;;;10.24;99.82;99155.48;104439;1293;22668;-35
2022/12/26 10:48:48;;;;;;;9.50;7.20;;;;;;;10.00;99.94;99153.91;104426;1291;22938;-35
2022/12/26 10:51:14;;;;;;;15.50;8.80;;;;;;;10.00;100.00;99156.92;104434;1295;22985;-36
2022/12/26 10:53:42;;;;;;;8.60;6.30;;;;;;;10.02;100.00;99153.51;104468;1294;23046;-32
2022/12/26 10:56:08;;;;;;;10.00;7.00;;;;;;;9.97;100.00;99151.17;104499;1294;22668;-36
2022/12/26 10:58:35;;;;;;;9.90;7.30;;;;;;;9.88;100.00;99153.61;104440;1301;22957;-33
2022/12/26 11:01:25;;;;;;;11.80;7.20;;;;;;;9.97;100.00;99141.27;104432;1305;22663;-35
2022/12/26 11:44:24;;;;;;;8.90;6.50;;;;;;;9.85;100.00;99118.74;104349;1295;558062;-32
2022/12/26 11:47:09;;;;;;;16.20;7.70;;;;;;;9.87;100.00;99127.92;104251;1303;409278;-31
2022/12/26 11:49:37;;;;;;;12.70;7.40;;;;;;;9.91;100.00;99129.23;104636;1291;22820;-34
2022/12/26 11:52:36;;;;;;;14.70;6.90;;;;;;;9.86;100.00;99120.58;104650;1303;22667;-31
2022/12/26 11:55:27;;;;;;;16.60;8.20;;;;;;;9.94;100.00;99121.77;104805;1289;22680;-32
2022/12/26 11:58:14;;;;;;;16.80;8.40;;;;;;;9.75;100.00;99124.07;104638;1301;23190;-36
2022/12/26 12:00:41;;;;;;;13.50;7.30;;;;;;;9.96;100.00;99120.99;104524;1294;23203;-32
2022/12/26 12:03:15;;;;;;;14.80;7.20;;;;;;;10.49;100.00;99123.08;104746;1303;24205;-36
2022/12/26 12:06:05;;;;;;;12.90;6.60;;;;;;;10.99;99.04;99120.27;104664;1303;22640;-36
2022/12/26 12:08:45;;;;;;;13.60;6.50;;;;;;;11.40;97.87;99119.14;104636;1293;22811;-36
2022/12/26 12:11:34;;;;;;;7.50;5.50;;;;;;;11.77;93.58;99116.91;104485;1298;23087;-36
2022/12/26 12:14:24;;;;;;;8.70;5.40;;;;;;;12.04;92.21;99101.49;104637;1303;22806;-36
2022/12/26 12:16:56;;;;;;;17.10;5.80;;;;;;;12.19;91.68;99084.15;104610;1293;22791;-33
2022/12/26 12:20:01;;;;;;;11.70;5.50;;;;;;;12.45;90.93;99088.95;104501;1290;22560;-32
2022/12/26 12:22:43;;;;;;;13.30;5.10;;;;;;;12.10;89.89;99077.69;104823;1294;23044;-32
2022/12/26 12:25:25;;;;;;;7.90;5.60;;;;;;;11.92;91.16;99088.45;104711;1294;22662;-35
2022/12/26 12:28:06;;;;;;;13.90;7.50;;;;;;;12.04;89.53;99099.53;104612;1294;25321;-31
2022/12/26 12:30:47;;;;;;;6.10;4.00;;;;;;;12.15;89.66;99082.23;104662;1303;24309;-32
2022/12/26 12:33:27;;;;;;;8.60;5.00;;;;;;;12.19;89.73;99077.69;104548;1297;22663;-35
2022/12/26 12:36:02;;;;;;;6.70;3.20;;;;;;;12.62;89.15;99078.48;104641;1303;25341;-31
2022/12/26 12:38:51;;;;;;;6.70;4.60;;;;;;;12.84;86.53;99081.80;104847;1292;24251;-35
2022/12/26 12:41:37;;;;;;;11.80;4.30;;;;;;;12.79;85.34;99083.10;104784;1303;22818;-32
2022/12/26 12:44:13;;;;;;;13.30;4.70;;;;;;;12.28;87.01;99083.78;104548;1303;22945;-31
2022/12/26 12:46:48;;;;;;;8.70;5.60;;;;;;;11.97;89.39;99085.48;104653;1303;22573;-35
2022/12/26 12:49:27;;;;;;;7.40;4.80;;;;;;;12.02;88.72;99077.36;104533;1290;23958;-35
2022/12/26 12:52:01;;;;;;;7.20;4.70;;;;;;;11.72;89.35;99068.04;104470;1294;22658;-34
2022/12/26 12:54:46;;;;;;;10.20;5.80;;;;;;;11.72;90.24;99062.16;104806;1288;26667;-32
2022/12/26 12:57:29;;;;;;;6.40;4.10;;;;;;;11.58;90.39;99063.62;104550;1293;22558;-36
2022/12/26 13:00:23;;;;;;;16.70;9.60;;;;;;;11.72;90.65;99060.55;104575;1294;24389;-32
2022/12/26 13:02:57;;;;;;;9.60;6.30;;;;;;;11.72;91.06;99055.38;104765;1293;22650;-36
2022/12/26 13:05:37;;;;;;;11.80;7.10;;;;;;;11.64;91.33;99057.48;104640;1293;25369;-32
2022/12/26 13:08:15;;;;;;;8.50;3.80;;;;;;;11.37;92.70;99062.71;104652;1303;24262;-36
2022/12/26 13:10:52;;;;;;;7.40;5.50;;;;;;;11.34;92.78;99065.40;104700;1291;22558;-36
2022/12/26 13:13:23;;;;;;;13.50;6.10;;;;;;;11.20;93.49;99083.79;104685;1297;24298;-32
2022/12/26 13:15:51;;;;;;;7.60;4.60;;;;;;;10.99;94.91;99085.91;104560;1303;23298;-37
2022/12/26 13:18:22;;;;;;;11.70;6.40;;;;;;;11.00;95.35;99082.44;104771;1303;23040;-35
2022/12/26 13:20:58;;;;;;;14.80;6.80;;;;;;;11.04;94.66;99093.02;104858;1295;22565;-32
2022/12/26 13:26:12;;;;;;;10.80;5.70;;;;;;;11.06;95.11;99095.41;104597;1303;22576;-31
2022/12/26 13:28:49;;;;;;;6.60;3.40;;;;;;;11.10;94.61;99088.02;104714;1294;23209;-35
2022/12/26 13:31:15;;;;;;;8.30;4.70;;;;;;;10.97;94.80;99079.08;104671;1287;22558;-36
2022/12/26 13:33:42;;;;;;;8.50;5.10;;;;;;;10.95;95.41;99072.80;104331;1303;22578;-32
2022/12/26 13:36:08;;;;;;;10.00;5.10;;;;;;;10.97;95.53;99074.91;104630;1293;22668;-35
2022/12/26 13:38:57;;;;;;;12.20;3.80;;;;;;;11.02;95.43;99078.79;104614;1294;22620;-32
2022/12/26 13:44:06;;;;;;;6.80;4.40;;;;;;;10.89;96.48;99087.11;104654;1293;22565;-35
2022/12/26 13:46:54;;;;;;;7.60;4.00;;;;;;;10.88;96.74;99086.73;104621;1294;22898;-35
2022/12/26 13:49:36;;;;;;;7.60;5.20;;;;;;;10.73;97.48;99082.42;104693;1293;24311;-35
2022/12/26 13:52:24;;;;;;;4.90;3.70;;;;;;;10.47;99.59;99085.16;104692;1303;23041;-31
2022/12/26 13:55:17;;;;;;;7.90;5.00;;;;;;;10.48;100.00;99080.79;104578;1293;22797;-32
2022/12/26 13:57:44;;;;;;;8.20;5.60;;;;;;;10.47;100.00;99086.23;104549;1294;22634;-35
2022/12/26 14:00:22;;;;;;;8.90;5.20;;;;;;;10.42;100.00;99088.95;104641;1289;25731;-35
2022/12/26 14:03:12;;;;;;;9.50;3.90;;;;;;;10.39;100.00;99093.27;104637;1294;22656;-31
2022/12/26 14:05:54;;;;;;;9.70;6.50;;;;;;;10.44;100.00;99095.92;104591;1291;22672;-35
2022/12/26 14:08:42;;;;;;;6.90;4.20;;;;;;;10.59;99.98;99098.77;104673;1290;22579;-35
2022/12/26 14:11:31;;;;;;;7.90;4.90;;;;;;;10.69;99.49;99102.83;104481;1297;22566;-34
2022/12/26 14:14:06;;;;;;;7.60;4.80;;;;;;;10.79;98.57;99098.17;104677;1294;22664;-35
2022/12/26 14:16:46;;;;;;;7.20;4.00;;;;;;;10.76;98.17;99098.73;104681;1288;22574;-35
2022/12/26 14:19:34;;;;;;;10.10;5.70;;;;;;;10.81;97.66;99093.10;104535;1297;22817;-32
2022/12/26 14:22:15;;;;;;;7.90;4.30;;;;;;;10.67;99.35;99090.27;104729;1294;22702;-36
2022/12/26 14:25:05;;;;;;;6.10;3.70;;;;;;;10.64;99.93;99089.73;104638;1289;24429;-35
2022/12/26 14:27:45;;;;;;;9.00;4.10;;;;;;;10.64;100.00;99085.84;104523;1303;24510;-35
2022/12/26 14:30:19;;;;;;;4.50;2.60;;;;;;;10.55;100.00;99097.73;104620;1303;23125;-31
2022/12/26 14:33:04;;;;;;;5.00;2.80;;;;;;;10.39;100.00;99094.35;104523;1293;22574;-32
2022/12/26 14:35:53;;;;;;;6.10;3.90;;;;;;;10.31;100.00;99093.21;104672;1294;22630;-32
2022/12/26 14:38:50;;;;;;;5.80;2.90;;;;;;;10.36;100.00;99086.73;104618;1294;24298;-31
2022/12/26 14:43:46;;;;;;;10.00;3.60;;;;;;;10.19;100.00;99079.06;104557;1294;23693;-35
2022/12/26 14:46:44;;;;;;;6.90;3.00;;;;;;;10.19;100.00;99076.13;104663;1303;24232;-32
2022/12/26 14:49:22;;;;;;;7.50;2.70;;;;;;;10.20;100.00;99077.30;104582;1303;22664;-36